Time;durP1;ratioP1;P1;durP2;ratioP2;P2;SDS_P1;SDS_P2;PMS_P1;PMS_P2;Temp;Humidity;BMP_temperature;BMP_pressure;BME280_temperature;BME280_humidity;BME280_pressure;Samples;Min_cycle;Max_cycle;Signal;HPM_P1;HPM_P2
2024/03/14 00:03:02;;;;;;;6.87;6.37;;;13.40;44.70;;;;;;10347815;28;20236;-71
2024/03/14 00:08:06;;;;;;;6.17;5.67;;;13.30;44.60;;;;;;10348192;28;20259;-72
2024/03/14 00:13:09;;;;;;;7.57;6.97;;;13.30;44.70;;;;;;10343029;28;20309;-72
2024/03/14 00:18:14;;;;;;;6.83;6.33;;;13.30;44.60;;;;;;10341991;28;20239;-71
2024/03/14 00:23:17;;;;;;;6.57;6.07;;;13.30;44.60;;;;;;10339361;28;20230;-72
2024/03/14 00:28:24;;;;;;;6.80;6.30;;;13.20;44.50;;;;;;10334098;28;20234;-72
2024/03/14 00:33:27;;;;;;;6.57;6.07;;;13.20;44.50;;;;;;10342131;28;20341;-72
2024/03/14 00:38:31;;;;;;;6.70;6.20;;;13.20;44.50;;;;;;10343949;28;20802;-72
2024/03/14 00:43:36;;;;;;;6.93;6.23;;;13.20;44.60;;;;;;10344382;28;20605;-72
2024/03/14 00:48:40;;;;;;;7.40;6.80;;;13.20;44.50;;;;;;10341261;28;20317;-72
2024/03/14 00:53:43;;;;;;;6.37;5.90;;;13.30;44.40;;;;;;10334625;28;21163;-72
2024/03/14 00:58:47;;;;;;;6.53;5.97;;;13.30;44.30;;;;;;10328694;28;20633;-72
2024/03/14 01:03:50;;;;;;;5.87;5.47;;;13.30;44.10;;;;;;10344295;28;20886;-72
2024/03/14 01:08:53;;;;;;;6.00;5.40;;;13.30;44.00;;;;;;10340662;28;20230;-72
2024/03/14 01:13:57;;;;;;;6.80;6.30;;;13.30;43.90;;;;;;10339517;28;20242;-72
2024/03/14 01:19:01;;;;;;;6.80;6.30;;;13.30;43.80;;;;;;10329561;28;20226;-72
2024/03/14 01:24:04;;;;;;;7.53;6.93;;;13.30;43.70;;;;;;10355514;28;20262;-72
2024/03/14 01:29:07;;;;;;;8.43;7.73;;;13.30;43.70;;;;;;10376766;28;20260;-72
2024/03/14 01:34:12;;;;;;;6.53;6.03;;;13.30;43.50;;;;;;10382932;28;20631;-71
2024/03/14 01:39:16;;;;;;;6.57;6.17;;;13.20;43.70;;;;;;10386767;28;20247;-72
2024/03/14 01:44:20;;;;;;;7.17;6.57;;;13.20;43.70;;;;;;10386267;28;20261;-72
2024/03/14 01:49:23;;;;;;;7.50;6.80;;;13.20;43.80;;;;;;10384947;28;20316;-71
2024/03/14 01:54:27;;;;;;;5.63;5.20;;;13.20;43.70;;;;;;10387298;28;21117;-72
2024/03/14 01:59:30;;;;;;;15.63;9.63;;;13.20;43.50;;;;;;10387337;28;20367;-72
2024/03/14 02:04:35;;;;;;;8.53;7.63;;;13.20;43.50;;;;;;10386329;28;20226;-72
2024/03/14 02:09:39;;;;;;;7.20;6.60;;;13.20;43.70;;;;;;10387211;28;20247;-72
2024/03/14 02:14:42;;;;;;;5.77;5.27;;;13.10;43.60;;;;;;10389121;28;20226;-72
2024/03/14 02:19:45;;;;;;;6.57;5.97;;;13.10;43.50;;;;;;10390862;28;20226;-72
2024/03/14 02:24:50;;;;;;;15.93;9.30;;;13.20;43.80;;;;;;10386190;28;20230;-72
2024/03/14 02:29:53;;;;;;;8.00;7.27;;;13.10;44.30;;;;;;10386285;28;20233;-72
2024/03/14 02:34:57;;;;;;;7.37;6.77;;;13.10;43.70;;;;;;10376053;28;20596;-72
2024/03/14 02:40:00;;;;;;;6.27;5.80;;;13.10;44.40;;;;;;10376002;28;20234;-72
2024/03/14 02:45:04;;;;;;;7.43;6.33;;;13.00;43.70;;;;;;10372601;28;20796;-71
2024/03/14 02:50:09;;;;;;;7.00;6.50;;;12.90;43.80;;;;;;10377434;28;20241;-72
2024/03/14 02:55:12;;;;;;;6.63;6.13;;;12.90;44.20;;;;;;10388350;28;20710;-72
2024/03/14 03:00:19;;;;;;;6.53;6.03;;;12.80;44.20;;;;;;10372016;28;20240;-72
2024/03/14 03:05:22;;;;;;;6.73;6.23;;;12.80;44.30;;;;;;10379957;28;20256;-71
2024/03/14 03:10:25;;;;;;;7.80;7.20;;;12.80;44.40;;;;;;10372875;28;20743;-72
2024/03/14 03:15:29;;;;;;;7.80;7.00;;;12.80;44.30;;;;;;10385328;28;20218;-72
2024/03/14 03:20:32;;;;;;;7.20;6.60;;;12.80;44.30;;;;;;10373647;28;20249;-72
2024/03/14 03:25:36;;;;;;;6.40;5.90;;;12.70;44.30;;;;;;10368976;28;20233;-72
2024/03/14 03:30:39;;;;;;;7.33;6.67;;;12.70;44.50;;;;;;10382831;28;20238;-72
2024/03/14 03:35:42;;;;;;;6.97;6.47;;;12.60;44.50;;;;;;10384532;28;20242;-72
2024/03/14 03:40:45;;;;;;;7.83;7.13;;;12.60;44.70;;;;;;10382252;28;20249;-72
2024/03/14 03:45:49;;;;;;;8.27;7.57;;;12.70;44.70;;;;;;10379350;28;20240;-72
2024/03/14 03:50:52;;;;;;;7.93;7.30;;;12.60;44.60;;;;;;10379706;28;20256;-72
2024/03/14 03:55:55;;;;;;;8.30;7.60;;;12.60;44.60;;;;;;10385987;28;20230;-72
2024/03/14 04:01:06;;;;;;;7.70;7.10;;;12.70;44.70;;;;;;10380271;28;20232;-71
2024/03/14 04:06:15;;;;;;;6.77;6.27;;;12.60;44.50;;;;;;10369368;28;20309;-71
2024/03/14 04:11:19;;;;;;;7.97;7.37;;;12.50;44.60;;;;;;10378393;28;20598;-71
2024/03/14 04:16:22;;;;;;;8.03;7.43;;;12.50;44.70;;;;;;10374881;28;20226;-72
2024/03/14 04:21:26;;;;;;;8.67;7.97;;;12.50;44.80;;;;;;10382115;28;20679;-72
2024/03/14 04:26:29;;;;;;;8.67;7.97;;;12.50;44.90;;;;;;10383089;28;20312;-72
2024/03/14 04:31:33;;;;;;;6.40;5.90;;;12.50;44.90;;;;;;10384840;28;20319;-72
2024/03/14 04:36:37;;;;;;;8.97;8.13;;;12.50;44.90;;;;;;10381803;28;20232;-72
2024/03/14 04:41:40;;;;;;;9.33;8.43;;;12.50;44.80;;;;;;10379327;28;20229;-72
2024/03/14 04:46:43;;;;;;;7.20;6.57;;;12.40;44.60;;;;;;10367323;28;20236;-72
2024/03/14 04:51:47;;;;;;;7.80;7.10;;;12.50;44.70;;;;;;10377960;28;20221;-72
2024/03/14 04:56:50;;;;;;;7.30;6.70;;;12.50;44.40;;;;;;10376060;28;20233;-72
2024/03/14 05:01:54;;;;;;;8.30;7.60;;;12.50;44.20;;;;;;10382518;28;20234;-71
2024/03/14 05:06:57;;;;;;;8.30;7.47;;;12.50;44.10;;;;;;10393150;28;20226;-71
2024/03/14 05:12:00;;;;;;;7.67;6.97;;;12.50;44.00;;;;;;10375154;28;20341;-72
2024/03/14 05:17:04;;;;;;;7.10;6.50;;;12.50;43.90;;;;;;10389641;28;20218;-71
2024/03/14 05:22:07;;;;;;;7.43;6.83;;;12.50;43.80;;;;;;10387703;28;20257;-72
2024/03/14 05:27:12;;;;;;;12.20;11.10;;;12.40;43.70;;;;;;10383248;28;20911;-71
2024/03/14 05:32:21;;;;;;;19.90;18.10;;;12.50;43.70;;;;;;10386003;28;20222;-72
2024/03/14 05:37:24;;;;;;;17.63;15.90;;;12.40;43.90;;;;;;10377041;28;20222;-72
2024/03/14 05:42:28;;;;;;;18.63;13.83;;;12.40;43.50;;;;;;10389686;28;20253;-72
2024/03/14 05:47:32;;;;;;;10.20;9.23;;;12.20;43.40;;;;;;10387410;28;20246;-71
2024/03/14 05:52:35;;;;;;;9.80;9.00;;;12.10;43.60;;;;;;10383905;28;20233;-72
2024/03/14 05:57:39;;;;;;;10.60;9.73;;;11.90;43.90;;;;;;10375178;28;20725;-72
2024/03/14 06:02:43;;;;;;;12.40;11.23;;;11.90;44.20;;;;;;10382117;28;20213;-72
2024/03/14 06:07:46;;;;;;;12.00;11.00;;;11.90;44.40;;;;;;10386165;28;20236;-72
2024/03/14 06:12:50;;;;;;;9.53;8.73;;;11.90;44.40;;;;;;10386709;28;20221;-72
2024/03/14 06:17:53;;;;;;;8.50;7.80;;;11.90;44.50;;;;;;10385445;28;20543;-72
2024/03/14 06:22:58;;;;;;;11.07;8.43;;;11.90;44.70;;;;;;10375362;28;20249;-72
2024/03/14 06:28:02;;;;;;;9.70;8.63;;;12.00;44.80;;;;;;10381547;28;20222;-72
2024/03/14 06:33:06;;;;;;;8.00;7.30;;;12.00;44.50;;;;;;10365238;28;20307;-71
2024/03/14 06:38:09;;;;;;;8.00;7.30;;;11.90;44.70;;;;;;10385508;28;20230;-72
2024/03/14 06:43:12;;;;;;;7.90;7.20;;;11.80;45.00;;;;;;10373440;28;20313;-72
2024/03/14 06:48:16;;;;;;;8.47;7.67;;;11.80;45.20;;;;;;10380740;28;20248;-72
2024/03/14 06:53:19;;;;;;;8.57;7.87;;;11.80;45.30;;;;;;10383691;28;20267;-72
2024/03/14 06:58:24;;;;;;;9.43;8.63;;;11.90;45.40;;;;;;10377497;28;20261;-72
2024/03/14 07:03:27;;;;;;;9.77;8.87;;;11.90;45.60;;;;;;10383801;28;20225;-72
2024/03/14 07:08:30;;;;;;;8.57;7.87;;;11.90;45.80;;;;;;10369865;28;20320;-72
2024/03/14 07:13:36;;;;;;;8.30;7.57;;;12.00;45.90;;;;;;10387812;28;20241;-72
2024/03/14 07:18:40;;;;;;;8.93;8.23;;;11.90;46.10;;;;;;10372704;28;20608;-72
2024/03/14 07:23:47;;;;;;;8.50;7.80;;;12.00;46.30;;;;;;10368181;28;20309;-72
2024/03/14 07:28:53;;;;;;;9.00;8.30;;;12.00;46.40;;;;;;10382201;28;20241;-72
2024/03/14 07:33:56;;;;;;;9.70;8.87;;;12.10;46.50;;;;;;10380066;28;20249;-72
2024/03/14 07:39:01;;;;;;;9.77;8.97;;;12.20;46.60;;;;;;10370565;28;20232;-72
2024/03/14 07:44:04;;;;;;;9.90;9.00;;;12.20;46.60;;;;;;10372202;28;20683;-72
2024/03/14 07:49:25;;;;;;;10.20;9.30;;;12.30;46.70;;;;;;10375216;28;20225;-72
2024/03/14 07:54:28;;;;;;;9.63;8.73;;;12.40;46.70;;;;;;10382293;28;20313;-72
2024/03/14 07:59:32;;;;;;;6.83;6.30;;;12.50;46.80;;;;;;10372298;28;20569;-72
2024/03/14 08:04:35;;;;;;;7.43;6.83;;;12.60;46.70;;;;;;10387005;28;20654;-72
2024/03/14 08:09:39;;;;;;;7.10;6.40;;;12.70;46.80;;;;;;10382735;28;20233;-72
2024/03/14 08:14:44;;;;;;;6.03;5.53;;;12.80;47.00;;;;;;10383557;28;20303;-72
2024/03/14 08:19:50;;;;;;;6.70;6.10;;;12.90;47.20;;;;;;10375202;28;20242;-72
2024/03/14 08:24:55;;;;;;;5.97;5.57;;;13.10;46.90;;;;;;10378506;28;20244;-72
2024/03/14 08:29:59;;;;;;;7.63;6.07;;;13.20;46.70;;;;;;10376689;28;20235;-72
2024/03/14 08:35:05;;;;;;;6.50;6.00;;;13.30;46.70;;;;;;10366053;28;20565;-72
2024/03/14 08:40:09;;;;;;;6.33;5.73;;;13.40;46.70;;;;;;10371819;28;20232;-72
2024/03/14 08:45:14;;;;;;;6.07;5.57;;;13.50;46.90;;;;;;10383421;28;20272;-72
2024/03/14 08:50:21;;;;;;;5.50;5.10;;;13.60;46.90;;;;;;10381918;28;20230;-72
2024/03/14 08:55:33;;;;;;;5.60;5.20;;;13.80;46.90;;;;;;10381792;28;20237;-72
2024/03/14 09:00:37;;;;;;;5.93;5.43;;;14.00;46.90;;;;;;10381396;28;20223;-72
2024/03/14 09:05:41;;;;;;;5.07;4.67;;;14.10;47.00;;;;;;10379834;28;20236;-71
2024/03/14 09:10:45;;;;;;;5.83;5.43;;;14.30;47.50;;;;;;10379632;28;20309;-72
2024/03/14 09:15:50;;;;;;;6.13;5.63;;;14.50;47.80;;;;;;10376861;28;20320;-73
2024/03/14 09:20:55;;;;;;;6.70;6.20;;;14.70;46.90;;;;;;10375044;28;20357;-72
2024/03/14 09:26:02;;;;;;;5.60;5.17;;;14.80;46.70;;;;;;10379893;28;20233;-73
2024/03/14 09:31:08;;;;;;;5.77;5.37;;;15.00;46.30;;;;;;10373989;28;20329;-72
2024/03/14 09:36:13;;;;;;;6.10;5.60;;;15.10;45.70;;;;;;10349326;28;20230;-72
2024/03/14 09:41:17;;;;;;;5.87;5.37;;;15.20;45.80;;;;;;10336186;28;20812;-72
2024/03/14 09:46:25;;;;;;;5.60;5.20;;;15.30;45.90;;;;;;10339954;28;20237;-72
2024/03/14 09:51:30;;;;;;;5.00;4.70;;;15.40;45.50;;;;;;10340258;28;20696;-73
2024/03/14 09:56:34;;;;;;;5.20;4.80;;;15.50;45.70;;;;;;10333051;28;20235;-72
2024/03/14 10:01:37;;;;;;;4.43;4.03;;;15.60;45.00;;;;;;10345519;28;20771;-72
2024/03/14 10:06:41;;;;;;;5.60;5.20;;;15.70;45.20;;;;;;10359980;28;20244;-72
2024/03/14 10:11:45;;;;;;;5.10;4.73;;;15.80;45.00;;;;;;10383918;28;20221;-72
2024/03/14 10:16:50;;;;;;;5.00;4.60;;;15.90;45.50;;;;;;10362352;28;20225;-72
2024/03/14 10:21:54;;;;;;;4.20;3.80;;;16.10;45.30;;;;;;10347627;28;20694;-72
2024/03/14 10:26:57;;;;;;;4.63;4.23;;;16.20;44.90;;;;;;10359620;28;20230;-72
2024/03/14 10:32:03;;;;;;;4.90;4.33;;;16.30;45.50;;;;;;10378945;28;20240;-72
2024/03/14 10:37:07;;;;;;;4.60;4.20;;;16.50;44.80;;;;;;10353931;28;20228;-72
2024/03/14 10:42:10;;;;;;;4.03;3.73;;;16.60;45.00;;;;;;10370820;28;20248;-72
2024/03/14 10:47:14;;;;;;;3.83;3.53;;;16.80;44.80;;;;;;10348358;28;20226;-72
2024/03/14 10:52:21;;;;;;;3.93;3.63;;;16.90;44.30;;;;;;10344705;28;20230;-72
2024/03/14 10:57:26;;;;;;;3.67;3.40;;;17.10;43.80;;;;;;10331289;28;20252;-72
2024/03/14 11:02:30;;;;;;;4.00;3.70;;;17.20;43.90;;;;;;10340256;28;20230;-72
2024/03/14 11:07:33;;;;;;;3.53;3.23;;;17.40;43.60;;;;;;10327933;28;20234;-72
2024/03/14 11:12:36;;;;;;;4.10;3.80;;;17.60;44.00;;;;;;10340944;28;20222;-72
2024/03/14 11:17:40;;;;;;;3.73;3.50;;;17.70;43.10;;;;;;10326484;28;20274;-72
2024/03/14 11:22:45;;;;;;;4.10;3.80;;;17.80;42.90;;;;;;10332094;28;20230;-73
2024/03/14 11:27:48;;;;;;;3.57;3.37;;;17.90;42.60;;;;;;10324318;28;20321;-73
2024/03/14 11:32:55;;;;;;;3.37;3.13;;;18.10;42.10;;;;;;10342270;28;20241;-72
2024/03/14 11:37:59;;;;;;;3.30;3.00;;;18.10;41.40;;;;;;10339707;28;20231;-72
2024/03/14 11:43:04;;;;;;;3.07;2.87;;;18.10;41.10;;;;;;10323547;28;20508;-71
2024/03/14 11:48:08;;;;;;;3.30;3.00;;;18.10;41.10;;;;;;10356386;28;20229;-72
2024/03/14 11:53:12;;;;;;;3.57;3.27;;;18.10;41.10;;;;;;10359007;28;20222;-72
2024/03/14 11:58:16;;;;;;;3.47;3.00;;;18.10;41.00;;;;;;10362787;28;20231;-72
2024/03/14 12:03:22;;;;;;;3.10;2.90;;;18.10;40.60;;;;;;10329643;28;20234;-72
2024/03/14 12:08:26;;;;;;;2.87;2.67;;;18.20;40.60;;;;;;10361344;28;20708;-73
2024/03/14 12:13:32;;;;;;;2.90;2.70;;;18.20;40.20;;;;;;10357103;28;20226;-72
2024/03/14 12:18:37;;;;;;;3.27;2.97;;;18.20;40.10;;;;;;10355777;28;20223;-73
2024/03/14 12:23:41;;;;;;;3.53;2.70;;;18.20;39.50;;;;;;10371332;28;20702;-72
2024/03/14 12:28:44;;;;;;;3.53;2.90;;;18.10;39.60;;;;;;10338473;28;20890;-73
2024/03/14 12:33:47;;;;;;;2.80;2.60;;;18.10;40.10;;;;;;10348330;28;20273;-73
2024/03/14 12:38:51;;;;;;;3.53;2.80;;;18.20;40.20;;;;;;10346560;28;20226;-72
2024/03/14 12:43:56;;;;;;;3.00;2.70;;;18.40;39.80;;;;;;10339510;28;20234;-72
2024/03/14 12:48:59;;;;;;;3.13;2.83;;;18.40;39.40;;;;;;10340946;28;20590;-72
2024/03/14 12:54:03;;;;;;;3.30;3.10;;;18.40;39.30;;;;;;10330422;28;20272;-72
2024/03/14 12:59:08;;;;;;;2.93;2.67;;;18.40;39.10;;;;;;10342648;28;20257;-72
2024/03/14 13:04:18;;;;;;;3.03;2.70;;;18.50;39.40;;;;;;10379726;28;20234;-72
2024/03/14 13:09:24;;;;;;;2.53;2.33;;;18.60;39.10;;;;;;10380100;28;20229;-72
2024/03/14 13:14:27;;;;;;;3.03;2.60;;;18.60;38.80;;;;;;10370111;28;20263;-72
2024/03/14 13:19:32;;;;;;;3.10;2.90;;;18.60;38.60;;;;;;10367289;28;20225;-72
2024/03/14 13:24:35;;;;;;;3.00;2.80;;;18.60;38.60;;;;;;10370398;28;20312;-72
2024/03/14 13:29:39;;;;;;;2.90;2.70;;;18.70;38.60;;;;;;10374861;28;20236;-73
2024/03/14 13:34:43;;;;;;;3.10;2.90;;;18.70;38.40;;;;;;10389712;28;20225;-72
2024/03/14 13:39:47;;;;;;;3.27;3.00;;;18.70;37.90;;;;;;10374173;28;20232;-72
2024/03/14 13:44:51;;;;;;;2.93;2.63;;;18.70;37.80;;;;;;10385737;28;20237;-72
2024/03/14 13:49:58;;;;;;;2.90;2.60;;;18.70;37.90;;;;;;10388609;28;20350;-72
2024/03/14 13:55:05;;;;;;;2.10;1.90;;;18.70;38.00;;;;;;10390249;28;20225;-72
2024/03/14 14:00:11;;;;;;;2.53;2.10;;;18.70;39.20;;;;;;10372782;28;20708;-72
2024/03/14 14:05:20;;;;;;;3.83;2.87;;;18.80;38.10;;;;;;10366196;28;20222;-72
2024/03/14 14:10:24;;;;;;;2.73;2.53;;;18.90;38.00;;;;;;10373444;28;20237;-72
2024/03/14 14:15:29;;;;;;;2.60;2.40;;;19.00;37.80;;;;;;10365220;28;20820;-72
2024/03/14 14:20:34;;;;;;;3.10;2.80;;;19.10;37.50;;;;;;10374361;28;20238;-72
2024/03/14 14:25:37;;;;;;;3.33;2.97;;;19.20;37.00;;;;;;10378062;28;20229;-72
2024/03/14 14:30:41;;;;;;;2.80;2.60;;;19.10;36.30;;;;;;10366710;28;20230;-73
2024/03/14 14:35:45;;;;;;;3.00;2.70;;;19.00;36.80;;;;;;10375680;28;20352;-73
2024/03/14 14:40:49;;;;;;;3.07;2.77;;;19.00;36.70;;;;;;10378095;28;20240;-72
2024/03/14 14:45:54;;;;;;;3.03;2.80;;;19.00;36.90;;;;;;10360821;28;20252;-72
2024/03/14 14:50:58;;;;;;;2.77;2.57;;;19.00;36.90;;;;;;10376853;28;20234;-73
2024/03/14 14:56:13;;;;;;;2.40;2.20;;;19.10;36.70;;;;;;10376974;28;20354;-72
2024/03/14 15:01:17;;;;;;;2.10;2.00;;;19.10;36.80;;;;;;10369959;28;20769;-72
2024/03/14 15:06:21;;;;;;;3.30;2.30;;;19.20;36.60;;;;;;10374885;28;20234;-73
2024/03/14 15:11:24;;;;;;;2.10;1.90;;;19.20;36.60;;;;;;10362168;28;20238;-72
2024/03/14 15:16:28;;;;;;;2.67;2.47;;;19.30;36.20;;;;;;10361788;28;20245;-72
2024/03/14 15:21:32;;;;;;;2.60;2.40;;;19.30;36.10;;;;;;10372856;28;20236;-72
2024/03/14 15:26:37;;;;;;;2.57;2.37;;;19.30;36.10;;;;;;10374263;28;20326;-72
2024/03/14 15:31:40;;;;;;;2.27;2.10;;;19.20;35.80;;;;;;10373662;28;20295;-72
2024/03/14 15:36:45;;;;;;;2.30;2.13;;;19.20;35.80;;;;;;10375784;28;20225;-72
2024/03/14 15:41:49;;;;;;;2.10;2.00;;;19.20;35.80;;;;;;10370464;28;20825;-72
2024/03/14 15:46:52;;;;;;;2.20;2.00;;;19.10;35.70;;;;;;10371258;28;20703;-72
2024/03/14 15:51:55;;;;;;;2.10;2.00;;;19.00;35.60;;;;;;10372555;28;20297;-72
2024/03/14 15:57:00;;;;;;;2.73;2.13;;;19.00;35.70;;;;;;10361840;28;20715;-72
2024/03/14 16:02:05;;;;;;;2.60;2.13;;;19.00;36.00;;;;;;10373133;28;20230;-72
2024/03/14 16:07:09;;;;;;;2.30;2.20;;;19.00;35.60;;;;;;10370455;28;20229;-72
2024/03/14 16:12:13;;;;;;;2.77;2.30;;;18.90;35.50;;;;;;10378364;28;20275;-72
2024/03/14 16:17:16;;;;;;;2.10;1.90;;;18.80;35.50;;;;;;10375485;28;20250;-72
2024/03/14 16:22:21;;;;;;;1.97;1.73;;;18.80;35.50;;;;;;10379997;28;20229;-72
2024/03/14 16:27:24;;;;;;;2.10;2.00;;;18.70;35.40;;;;;;10378260;28;20599;-72
2024/03/14 16:32:27;;;;;;;2.13;2.03;;;18.80;35.50;;;;;;10369409;28;20238;-73
2024/03/14 16:37:30;;;;;;;2.07;1.97;;;18.70;35.40;;;;;;10360441;28;20227;-73
2024/03/14 16:42:36;;;;;;;2.10;1.90;;;18.70;35.40;;;;;;10354798;28;20253;-72
2024/03/14 16:47:40;;;;;;;2.40;2.20;;;18.70;35.40;;;;;;10371960;28;20301;-73
2024/03/14 16:52:44;;;;;;;2.77;2.50;;;18.70;35.40;;;;;;10354776;28;20742;-72
2024/03/14 16:57:47;;;;;;;2.60;2.40;;;18.60;35.30;;;;;;10352768;28;20870;-73
2024/03/14 17:02:51;;;;;;;1.80;1.70;;;18.60;35.30;;;;;;10338515;28;20231;-72
2024/03/14 17:07:54;;;;;;;1.83;1.73;;;18.60;35.30;;;;;;10354102;28;20671;-72
2024/03/14 17:12:58;;;;;;;2.00;1.90;;;18.50;35.20;;;;;;10363911;28;20261;-72
2024/03/14 17:18:02;;;;;;;2.77;2.57;;;18.50;35.20;;;;;;10374861;28;20221;-71
2024/03/14 17:23:11;;;;;;;3.10;2.80;;;18.50;35.20;;;;;;10361002;28;20353;-72
2024/03/14 17:28:17;;;;;;;2.50;2.30;;;18.50;35.20;;;;;;10376467;28;20229;-72
2024/03/14 17:33:20;;;;;;;2.40;2.20;;;18.50;35.20;;;;;;10375099;28;20238;-72
2024/03/14 17:38:24;;;;;;;5.10;3.70;;;18.40;35.10;;;;;;10377608;28;20261;-72
2024/03/14 17:43:28;;;;;;;9.20;5.17;;;18.40;35.10;;;;;;10374218;28;20232;-72
2024/03/14 17:48:32;;;;;;;9.77;6.20;;;18.30;35.00;;;;;;10361802;28;20234;-73
2024/03/14 17:53:36;;;;;;;8.60;5.40;;;18.30;35.00;;;;;;10378115;28;20226;-72
2024/03/14 17:58:40;;;;;;;7.33;5.80;;;18.10;34.80;;;;;;10378815;28;20236;-73
2024/03/14 18:03:43;;;;;;;8.13;5.53;;;18.00;34.70;;;;;;10378931;28;20309;-73
2024/03/14 18:08:47;;;;;;;7.07;5.80;;;17.90;34.70;;;;;;10378122;28;20711;-73
2024/03/14 18:13:50;;;;;;;11.87;6.80;;;17.70;34.90;;;;;;10383564;28;20222;-72
2024/03/14 18:18:53;;;;;;;11.93;7.70;;;17.50;34.90;;;;;;10386430;28;20309;-72
2024/03/14 18:23:57;;;;;;;10.20;8.20;;;17.40;35.10;;;;;;10383570;28;20219;-73
2024/03/14 18:29:00;;;;;;;9.13;7.97;;;17.30;35.40;;;;;;10371157;28;20411;-72
2024/03/14 18:34:03;;;;;;;14.33;11.53;;;17.20;35.60;;;;;;10346812;28;20624;-72
2024/03/14 18:39:13;;;;;;;10.97;9.57;;;17.10;35.40;;;;;;10343574;28;20242;-72
2024/03/14 18:44:17;;;;;;;13.97;10.60;;;17.00;35.50;;;;;;10354761;28;20229;-72
2024/03/14 18:49:23;;;;;;;12.83;10.23;;;16.90;35.60;;;;;;10374522;28;20313;-73
2024/03/14 18:54:26;;;;;;;10.23;9.07;;;16.80;35.60;;;;;;10387882;28;20669;-73
2024/03/14 18:59:31;;;;;;;8.97;8.17;;;16.80;35.60;;;;;;10375523;28;20232;-72
2024/03/14 19:04:34;;;;;;;11.27;9.50;;;16.70;35.70;;;;;;10382228;28;20323;-73
2024/03/14 19:09:38;;;;;;;14.47;10.57;;;16.60;35.70;;;;;;10380290;28;20221;-73
2024/03/14 19:14:43;;;;;;;19.47;12.77;;;16.50;35.70;;;;;;10387076;28;20794;-73
2024/03/14 19:19:47;;;;;;;17.50;11.90;;;16.40;35.70;;;;;;10379955;28;20243;-73
2024/03/14 19:24:50;;;;;;;15.57;11.57;;;16.40;35.90;;;;;;10379047;28;20222;-72
2024/03/14 19:29:53;;;;;;;12.27;8.97;;;16.30;35.80;;;;;;10381701;28;20225;-73
2024/03/14 19:34:57;;;;;;;13.30;9.43;;;16.20;35.90;;;;;;10378250;28;20272;-72
2024/03/14 19:40:01;;;;;;;13.47;10.40;;;16.20;35.90;;;;;;10387390;28;20305;-72
2024/03/14 19:45:07;;;;;;;13.13;8.93;;;16.10;35.90;;;;;;10366399;28;20229;-72
2024/03/14 19:50:12;;;;;;;10.70;8.40;;;16.10;36.00;;;;;;10380866;28;20943;-73
2024/03/14 19:55:15;;;;;;;13.47;9.13;;;16.00;36.00;;;;;;10382526;28;20281;-72
2024/03/14 20:00:20;;;;;;;14.43;9.70;;;15.90;36.00;;;;;;10378796;28;20230;-72
2024/03/14 20:05:25;;;;;;;15.20;11.87;;;15.80;36.00;;;;;;10381690;28;20237;-73
2024/03/14 20:10:31;;;;;;;16.23;13.53;;;15.80;36.10;;;;;;10380500;28;20241;-73
2024/03/14 20:15:34;;;;;;;14.40;13.00;;;15.70;36.10;;;;;;10371298;28;20226;-73
2024/03/14 20:20:38;;;;;;;12.57;11.37;;;15.60;36.10;;;;;;10381090;28;20260;-72
2024/03/14 20:25:44;;;;;;;12.17;10.97;;;15.60;36.20;;;;;;10375387;28;20349;-72
2024/03/14 20:30:48;;;;;;;21.27;14.90;;;15.50;36.30;;;;;;10378964;28;20607;-72
2024/03/14 20:35:54;;;;;;;17.10;12.13;;;15.40;36.20;;;;;;10374471;28;20228;-72
2024/03/14 20:40:58;;;;;;;13.60;11.93;;;15.40;36.30;;;;;;10357194;28;20359;-73
2024/03/14 20:46:04;;;;;;;14.87;11.10;;;15.30;36.30;;;;;;10371965;28;20239;-72
2024/03/14 20:51:10;;;;;;;10.17;8.93;;;15.20;37.00;;;;;;10371082;28;20764;-72
2024/03/14 20:56:14;;;;;;;9.40;8.47;;;15.20;36.30;;;;;;10379029;28;20233;-72
2024/03/14 21:01:17;;;;;;;8.97;8.07;;;15.10;36.40;;;;;;10368596;28;20264;-72
2024/03/14 21:06:21;;;;;;;8.60;7.80;;;15.00;36.50;;;;;;10376041;28;20774;-72
2024/03/14 21:11:28;;;;;;;7.87;7.17;;;14.80;36.50;;;;;;10342660;28;20283;-72
2024/03/14 21:16:36;;;;;;;8.60;7.80;;;14.70;36.50;;;;;;10347115;28;20825;-72
2024/03/14 21:21:40;;;;;;;7.13;6.50;;;14.60;36.60;;;;;;10377208;28;20234;-73
2024/03/14 21:26:44;;;;;;;8.20;7.43;;;14.40;36.70;;;;;;10336670;28;20358;-72
2024/03/14 21:31:47;;;;;;;6.17;5.63;;;14.30;36.80;;;;;;10324785;28;20236;-72
2024/03/14 21:36:50;;;;;;;7.63;6.93;;;14.30;37.00;;;;;;10334806;28;20245;-72
2024/03/14 21:41:53;;;;;;;7.73;6.87;;;14.20;37.30;;;;;;10333113;28;20238;-72
2024/03/14 21:46:57;;;;;;;7.50;6.80;;;14.10;37.30;;;;;;10343470;28;20750;-72
2024/03/14 21:52:01;;;;;;;9.40;8.50;;;14.10;37.40;;;;;;10349860;28;20230;-72
2024/03/14 21:57:04;;;;;;;7.90;7.10;;;14.10;37.50;;;;;;10337347;28;20301;-72
2024/03/14 22:02:09;;;;;;;7.47;6.77;;;14.00;37.30;;;;;;10350300;28;20238;-72
2024/03/14 22:07:13;;;;;;;8.03;7.27;;;14.00;37.20;;;;;;10345898;28;20667;-72
2024/03/14 22:12:16;;;;;;;8.80;8.00;;;13.90;37.30;;;;;;10351376;28;20222;-72
2024/03/14 22:17:19;;;;;;;7.97;7.17;;;13.80;37.20;;;;;;10345845;28;20233;-72
2024/03/14 22:22:23;;;;;;;8.30;7.50;;;13.70;37.20;;;;;;10350807;28;20230;-72
2024/03/14 22:27:27;;;;;;;7.87;7.13;;;13.70;37.20;;;;;;10318337;28;20226;-72
2024/03/14 22:32:31;;;;;;;8.03;7.20;;;13.60;37.30;;;;;;10344250;28;20258;-72
2024/03/14 22:37:35;;;;;;;9.80;7.10;;;13.50;37.40;;;;;;10350780;28;20257;-72
2024/03/14 22:42:39;;;;;;;10.43;9.33;;;13.40;37.40;;;;;;10371947;28;20736;-72
2024/03/14 22:47:43;;;;;;;9.50;8.57;;;13.40;37.50;;;;;;10345011;28;21681;-72
2024/03/14 22:52:46;;;;;;;7.70;7.00;;;13.40;37.60;;;;;;10361208;28;20245;-72
2024/03/14 22:57:50;;;;;;;9.10;8.27;;;13.30;37.60;;;;;;10387257;28;20226;-72
2024/03/14 23:02:53;;;;;;;9.83;8.40;;;13.20;37.50;;;;;;10372484;28;20245;-72
2024/03/14 23:07:57;;;;;;;8.60;7.77;;;13.10;37.50;;;;;;10373726;28;20228;-72
2024/03/14 23:13:00;;;;;;;9.43;8.20;;;13.10;37.60;;;;;;10381198;28;20723;-72
2024/03/14 23:18:03;;;;;;;8.17;7.47;;;13.00;37.40;;;;;;10374419;28;20939;-72
2024/03/14 23:23:07;;;;;;;7.43;6.73;;;12.90;37.50;;;;;;10380017;28;20757;-72
2024/03/14 23:28:10;;;;;;;7.00;6.40;;;12.90;37.70;;;;;;10375835;28;20257;-72
2024/03/14 23:33:15;;;;;;;8.00;7.30;;;12.90;37.90;;;;;;10386959;28;20275;-72
2024/03/14 23:38:18;;;;;;;8.87;8.07;;;12.90;37.90;;;;;;10382062;28;20295;-72
2024/03/14 23:43:21;;;;;;;7.40;6.80;;;12.80;37.70;;;;;;10384739;28;22309;-72
2024/03/14 23:48:24;;;;;;;7.40;6.73;;;12.80;37.60;;;;;;10380845;28;20238;-72
2024/03/14 23:53:28;;;;;;;6.90;6.07;;;12.80;37.60;;;;;;10367843;28;20238;-72
2024/03/14 23:58:31;;;;;;;7.70;7.00;;;12.70;37.50;;;;;;10373226;28;20234;-72
